sensor_id;sensor_type;location;lat;lon;timestamp;temperature;humidity
21551;DHT22;10936;49.836;7.078;2023-02-25T00:01:31;2.40;99.90
21551;DHT22;10936;49.836;7.078;2023-02-25T00:03:58;2.50;99.90
21551;DHT22;10936;49.836;7.078;2023-02-25T00:06:24;2.70;99.90
21551;DHT22;10936;49.836;7.078;2023-02-25T00:08:50;2.80;99.90
21551;DHT22;10936;49.836;7.078;2023-02-25T00:11:18;2.80;99.90
21551;DHT22;10936;49.836;7.078;2023-02-25T00:13:44;2.90;99.90
21551;DHT22;10936;49.836;7.078;2023-02-25T00:16:11;2.90;99.90
21551;DHT22;10936;49.836;7.078;2023-02-25T00:18:37;2.90;99.90
21551;DHT22;10936;49.836;7.078;2023-02-25T00:21:06;2.90;99.90
21551;DHT22;10936;49.836;7.078;2023-02-25T00:23:33;3.00;99.90
21551;DHT22;10936;49.836;7.078;2023-02-25T00:26:01;2.90;99.90
21551;DHT22;10936;49.836;7.078;2023-02-25T00:28:27;3.00;99.90
21551;DHT22;10936;49.836;7.078;2023-02-25T00:30:52;3.00;99.90
21551;DHT22;10936;49.836;7.078;2023-02-25T00:33:18;3.10;99.90
21551;DHT22;10936;49.836;7.078;2023-02-25T00:35:44;3.20;99.90
21551;DHT22;10936;49.836;7.078;2023-02-25T00:38:09;3.20;99.90
21551;DHT22;10936;49.836;7.078;2023-02-25T00:40:39;3.20;99.90
21551;DHT22;10936;49.836;7.078;2023-02-25T00:43:05;3.20;99.90
21551;DHT22;10936;49.836;7.078;2023-02-25T00:45:31;3.10;99.90
21551;DHT22;10936;49.836;7.078;2023-02-25T00:47:57;3.10;99.90
21551;DHT22;10936;49.836;7.078;2023-02-25T00:50:23;3.10;99.90
21551;DHT22;10936;49.836;7.078;2023-02-25T00:52:49;3.10;99.90
21551;DHT22;10936;49.836;7.078;2023-02-25T00:55:14;3.10;99.90
21551;DHT22;10936;49.836;7.078;2023-02-25T00:57:40;3.10;99.90
21551;DHT22;10936;49.836;7.078;2023-02-25T06:01:47;2.80;99.90
21551;DHT22;10936;49.836;7.078;2023-02-25T06:04:13;2.80;99.90
21551;DHT22;10936;49.836;7.078;2023-02-25T06:06:38;2.80;99.90
21551;DHT22;10936;49.836;7.078;2023-02-25T06:09:04;2.70;99.90
21551;DHT22;10936;49.836;7.078;2023-02-25T06:11:34;2.70;99.90
21551;DHT22;10936;49.836;7.078;2023-02-25T06:13:59;2.80;99.90
21551;DHT22;10936;49.836;7.078;2023-02-25T06:16:27;2.80;99.90
21551;DHT22;10936;49.836;7.078;2023-02-25T06:18:57;2.70;99.90
21551;DHT22;10936;49.836;7.078;2023-02-25T06:21:23;2.80;99.90
21551;DHT22;10936;49.836;7.078;2023-02-25T06:23:49;2.90;99.90
21551;DHT22;10936;49.836;7.078;2023-02-25T06:26:15;2.80;99.90
21551;DHT22;10936;49.836;7.078;2023-02-25T06:28:41;2.80;99.90
21551;DHT22;10936;49.836;7.078;2023-02-25T06:31:12;2.90;99.90
21551;DHT22;10936;49.836;7.078;2023-02-25T06:33:39;2.90;99.90
21551;DHT22;10936;49.836;7.078;2023-02-25T06:36:05;2.90;99.90
21551;DHT22;10936;49.836;7.078;2023-02-25T06:38:32;2.90;99.90
21551;DHT22;10936;49.836;7.078;2023-02-25T06:40:58;3.00;99.90
21551;DHT22;10936;49.836;7.078;2023-02-25T06:43:24;3.00;99.90
21551;DHT22;10936;49.836;7.078;2023-02-25T06:45:49;2.90;99.90
21551;DHT22;10936;49.836;7.078;2023-02-25T06:48:15;2.90;99.90
21551;DHT22;10936;49.836;7.078;2023-02-25T06:50:41;2.90;99.90
21551;DHT22;10936;49.836;7.078;2023-02-25T06:53:07;2.90;99.90
21551;DHT22;10936;49.836;7.078;2023-02-25T06:55:33;3.00;99.90
21551;DHT22;10936;49.836;7.078;2023-02-25T06:57:59;3.00;99.90
21551;DHT22;10936;49.836;7.078;2023-02-25T07:00:24;3.10;99.90
21551;DHT22;10936;49.836;7.078;2023-02-25T07:02:50;3.10;99.90
21551;DHT22;10936;49.836;7.078;2023-02-25T07:05:16;3.10;99.90
21551;DHT22;10936;49.836;7.078;2023-02-25T07:07:41;3.20;99.90
21551;DHT22;10936;49.836;7.078;2023-02-25T07:10:07;3.20;99.90
21551;DHT22;10936;49.836;7.078;2023-02-25T07:12:34;3.30;99.90
21551;DHT22;10936;49.836;7.078;2023-02-25T07:15:00;3.30;99.90
21551;DHT22;10936;49.836;7.078;2023-02-25T07:17:26;3.40;99.90
21551;DHT22;10936;49.836;7.078;2023-02-25T07:19:51;3.50;99.90
21551;DHT22;10936;49.836;7.078;2023-02-25T07:22:17;3.40;99.90
21551;DHT22;10936;49.836;7.078;2023-02-25T07:24:44;3.50;99.90
21551;DHT22;10936;49.836;7.078;2023-02-25T07:27:12;3.50;99.90
21551;DHT22;10936;49.836;7.078;2023-02-25T07:29:38;3.60;99.90
21551;DHT22;10936;49.836;7.078;2023-02-25T07:32:04;3.50;99.90
21551;DHT22;10936;49.836;7.078;2023-02-25T07:34:30;3.50;99.90
21551;DHT22;10936;49.836;7.078;2023-02-25T07:36:56;3.50;99.90
21551;DHT22;10936;49.836;7.078;2023-02-25T07:39:22;3.50;99.90
21551;DHT22;10936;49.836;7.078;2023-02-25T07:41:47;3.60;99.90
21551;DHT22;10936;49.836;7.078;2023-02-25T07:44:13;3.70;99.90
21551;DHT22;10936;49.836;7.078;2023-02-25T07:46:39;3.80;99.90
21551;DHT22;10936;49.836;7.078;2023-02-25T07:49:06;3.80;99.90
21551;DHT22;10936;49.836;7.078;2023-02-25T07:51:32;3.60;99.90
21551;DHT22;10936;49.836;7.078;2023-02-25T07:53:58;3.60;99.90
21551;DHT22;10936;49.836;7.078;2023-02-25T07:56:26;3.70;99.90
21551;DHT22;10936;49.836;7.078;2023-02-25T07:58:52;3.70;99.90
21551;DHT22;10936;49.836;7.078;2023-02-25T08:01:19;3.80;99.90
21551;DHT22;10936;49.836;7.078;2023-02-25T08:03:47;3.80;99.90
21551;DHT22;10936;49.836;7.078;2023-02-25T08:06:14;4.00;99.90
21551;DHT22;10936;49.836;7.078;2023-02-25T08:08:39;4.10;99.90
21551;DHT22;10936;49.836;7.078;2023-02-25T08:11:07;4.10;99.90
21551;DHT22;10936;49.836;7.078;2023-02-25T08:13:33;4.20;99.90
21551;DHT22;10936;49.836;7.078;2023-02-25T08:15:58;4.30;99.90
21551;DHT22;10936;49.836;7.078;2023-02-25T08:18:24;4.20;99.90
21551;DHT22;10936;49.836;7.078;2023-02-25T08:20:49;4.20;99.90
21551;DHT22;10936;49.836;7.078;2023-02-25T08:23:15;4.30;99.90
21551;DHT22;10936;49.836;7.078;2023-02-25T08:25:41;4.50;99.90
21551;DHT22;10936;49.836;7.078;2023-02-25T08:28:06;4.70;99.90
21551;DHT22;10936;49.836;7.078;2023-02-25T08:30:32;4.80;99.90
21551;DHT22;10936;49.836;7.078;2023-02-25T08:32:57;4.80;99.90
21551;DHT22;10936;49.836;7.078;2023-02-25T08:35:24;4.80;99.90
21551;DHT22;10936;49.836;7.078;2023-02-25T08:37:51;5.00;99.90
21551;DHT22;10936;49.836;7.078;2023-02-25T08:40:19;5.00;99.90
21551;DHT22;10936;49.836;7.078;2023-02-25T08:42:44;5.10;99.90
21551;DHT22;10936;49.836;7.078;2023-02-25T08:45:10;5.10;99.90
21551;DHT22;10936;49.836;7.078;2023-02-25T08:47:36;5.10;99.90
21551;DHT22;10936;49.836;7.078;2023-02-25T08:50:03;5.20;99.90
21551;DHT22;10936;49.836;7.078;2023-02-25T08:52:30;5.20;99.90
21551;DHT22;10936;49.836;7.078;2023-02-25T08:54:59;5.20;99.90
21551;DHT22;10936;49.836;7.078;2023-02-25T08:57:25;5.00;99.90
21551;DHT22;10936;49.836;7.078;2023-02-25T08:59:51;5.00;99.90
21551;DHT22;10936;49.836;7.078;2023-02-25T09:02:17;5.10;99.90
21551;DHT22;10936;49.836;7.078;2023-02-25T09:04:42;5.20;99.90
21551;DHT22;10936;49.836;7.078;2023-02-25T09:07:08;5.30;99.90
21551;DHT22;10936;49.836;7.078;2023-02-25T09:09:33;5.40;99.90
21551;DHT22;10936;49.836;7.078;2023-02-25T09:12:00;5.30;99.90
21551;DHT22;10936;49.836;7.078;2023-02-25T09:14:26;5.50;99.90
21551;DHT22;10936;49.836;7.078;2023-02-25T09:16:52;5.70;99.90
21551;DHT22;10936;49.836;7.078;2023-02-25T09:19:18;5.90;99.90
21551;DHT22;10936;49.836;7.078;2023-02-25T09:21:45;5.80;99.90
21551;DHT22;10936;49.836;7.078;2023-02-25T09:24:12;5.80;99.90
21551;DHT22;10936;49.836;7.078;2023-02-25T09:26:38;6.00;99.90
21551;DHT22;10936;49.836;7.078;2023-02-25T09:29:05;5.80;99.90
21551;DHT22;10936;49.836;7.078;2023-02-25T09:31:30;5.90;99.90
21551;DHT22;10936;49.836;7.078;2023-02-25T09:33:57;6.00;99.90
21551;DHT22;10936;49.836;7.078;2023-02-25T09:36:23;6.00;99.90
21551;DHT22;10936;49.836;7.078;2023-02-25T09:38:49;6.10;99.90
21551;DHT22;10936;49.836;7.078;2023-02-25T09:43:44;5.90;99.90
21551;DHT22;10936;49.836;7.078;2023-02-25T09:46:15;5.80;99.90
21551;DHT22;10936;49.836;7.078;2023-02-25T09:49:11;5.80;99.90
21551;DHT22;10936;49.836;7.078;2023-02-25T09:51:43;5.60;99.90
21551;DHT22;10936;49.836;7.078;2023-02-25T09:54:20;5.40;99.90
21551;DHT22;10936;49.836;7.078;2023-02-25T09:56:48;5.50;99.90
21551;DHT22;10936;49.836;7.078;2023-02-25T09:59:16;5.60;99.90
21551;DHT22;10936;49.836;7.078;2023-02-25T10:05:04;5.70;99.90
21551;DHT22;10936;49.836;7.078;2023-02-25T10:07:34;5.80;99.90
21551;DHT22;10936;49.836;7.078;2023-02-25T10:10:14;5.80;99.90
21551;DHT22;10936;49.836;7.078;2023-02-25T10:12:59;5.90;99.90
21551;DHT22;10936;49.836;7.078;2023-02-25T10:15:50;6.30;99.90
21551;DHT22;10936;49.836;7.078;2023-02-25T10:26:51;7.60;99.90
21551;DHT22;10936;49.836;7.078;2023-02-25T10:29:35;8.20;99.90
21551;DHT22;10936;49.836;7.078;2023-02-25T10:32:32;8.50;99.90
21551;DHT22;10936;49.836;7.078;2023-02-25T10:35:00;9.00;99.90
21551;DHT22;10936;49.836;7.078;2023-02-25T10:37:32;10.90;99.90
21551;DHT22;10936;49.836;7.078;2023-02-25T10:40:00;15.30;99.90
21551;DHT22;10936;49.836;7.078;2023-02-25T10:42:26;19.40;98.70
21551;DHT22;10936;49.836;7.078;2023-02-25T10:44:54;21.70;92.20
21551;DHT22;10936;49.836;7.078;2023-02-25T10:47:34;20.20;90.70
21551;DHT22;10936;49.836;7.078;2023-02-25T10:52:54;13.70;95.30
21551;DHT22;10936;49.836;7.078;2023-02-25T10:57:55;10.50;99.80
21551;DHT22;10936;49.836;7.078;2023-02-25T11:00:26;9.00;99.90
21551;DHT22;10936;49.836;7.078;2023-02-25T11:02:53;8.10;99.90
21551;DHT22;10936;49.836;7.078;2023-02-25T11:07:54;7.70;99.90
21551;DHT22;10936;49.836;7.078;2023-02-25T11:10:22;7.90;99.90
21551;DHT22;10936;49.836;7.078;2023-02-25T11:12:53;8.50;99.90
21551;DHT22;10936;49.836;7.078;2023-02-25T11:15:37;9.40;99.90
21551;DHT22;10936;49.836;7.078;2023-02-25T11:20:54;11.40;99.90
21551;DHT22;10936;49.836;7.078;2023-02-25T11:25:56;13.40;99.90
21551;DHT22;10936;49.836;7.078;2023-02-25T11:28:45;14.60;99.90
21551;DHT22;10936;49.836;7.078;2023-02-25T11:31:19;13.30;99.90
21551;DHT22;10936;49.836;7.078;2023-02-25T11:34:13;10.80;99.90
21551;DHT22;10936;49.836;7.078;2023-02-25T11:36:40;9.70;99.90
21551;DHT22;10936;49.836;7.078;2023-02-25T11:39:18;9.10;99.90
21551;DHT22;10936;49.836;7.078;2023-02-25T11:41:49;8.80;99.90
21551;DHT22;10936;49.836;7.078;2023-02-25T11:44:22;8.70;99.90
21551;DHT22;10936;49.836;7.078;2023-02-25T11:47:02;8.30;99.90
21551;DHT22;10936;49.836;7.078;2023-02-25T12:00:41;7.40;99.90
21551;DHT22;10936;49.836;7.078;2023-02-25T12:14:41;7.50;99.90
21551;DHT22;10936;49.836;7.078;2023-02-25T12:23:12;8.10;99.90
21551;DHT22;10936;49.836;7.078;2023-02-25T12:37:37;7.60;99.90
21551;DHT22;10936;49.836;7.078;2023-02-25T13:03:09;7.40;99.90
21551;DHT22;10936;49.836;7.078;2023-02-25T13:17:28;8.40;99.90
21551;DHT22;10936;49.836;7.078;2023-02-25T13:20:21;8.00;99.90
21551;DHT22;10936;49.836;7.078;2023-02-25T13:25:52;7.90;99.90
21551;DHT22;10936;49.836;7.078;2023-02-25T13:59:15;5.00;99.90
21551;DHT22;10936;49.836;7.078;2023-02-25T14:10:53;6.00;99.90
21551;DHT22;10936;49.836;7.078;2023-02-25T14:13:28;6.20;99.90
21551;DHT22;10936;49.836;7.078;2023-02-25T14:16:11;6.40;99.90
21551;DHT22;10936;49.836;7.078;2023-02-25T14:18:52;6.30;99.90
21551;DHT22;10936;49.836;7.078;2023-02-25T14:21:33;6.40;99.90
21551;DHT22;10936;49.836;7.078;2023-02-25T14:30:01;7.00;99.90
21551;DHT22;10936;49.836;7.078;2023-02-25T14:38:09;6.80;99.90
21551;DHT22;10936;49.836;7.078;2023-02-25T14:40:48;6.50;99.90
21551;DHT22;10936;49.836;7.078;2023-02-25T14:43:34;6.00;99.90
21551;DHT22;10936;49.836;7.078;2023-02-25T14:49:47;4.70;99.90
21551;DHT22;10936;49.836;7.078;2023-02-25T14:55:41;4.10;99.90
21551;DHT22;10936;49.836;7.078;2023-02-25T14:58:35;4.10;99.90
21551;DHT22;10936;49.836;7.078;2023-02-25T15:01:11;3.90;99.90
21551;DHT22;10936;49.836;7.078;2023-02-25T15:03:56;3.70;99.90
21551;DHT22;10936;49.836;7.078;2023-02-25T15:06:49;3.80;99.90
21551;DHT22;10936;49.836;7.078;2023-02-25T15:22:28;3.50;99.90
21551;DHT22;10936;49.836;7.078;2023-02-25T15:30:20;3.40;99.90
21551;DHT22;10936;49.836;7.078;2023-02-25T15:35:56;3.50;99.90
21551;DHT22;10936;49.836;7.078;2023-02-25T15:39:04;3.50;99.90
21551;DHT22;10936;49.836;7.078;2023-02-25T15:43:59;3.80;99.90
21551;DHT22;10936;49.836;7.078;2023-02-25T15:46:48;4.30;99.90
21551;DHT22;10936;49.836;7.078;2023-02-25T15:49:33;4.50;99.90
21551;DHT22;10936;49.836;7.078;2023-02-25T15:52:01;4.50;99.90
21551;DHT22;10936;49.836;7.078;2023-02-25T15:56:57;4.50;99.90
21551;DHT22;10936;49.836;7.078;2023-02-25T16:05:14;4.20;99.90
21551;DHT22;10936;49.836;7.078;2023-02-25T16:07:43;4.00;99.90
21551;DHT22;10936;49.836;7.078;2023-02-25T16:10:50;3.70;99.90
21551;DHT22;10936;49.836;7.078;2023-02-25T16:13:34;3.60;99.90
21551;DHT22;10936;49.836;7.078;2023-02-25T16:16:02;3.40;99.90
21551;DHT22;10936;49.836;7.078;2023-02-25T16:18:38;3.40;99.90
21551;DHT22;10936;49.836;7.078;2023-02-25T16:21:16;3.10;99.90
21551;DHT22;10936;49.836;7.078;2023-02-25T16:23:44;2.90;99.90
21551;DHT22;10936;49.836;7.078;2023-02-25T16:39:37;1.70;99.90
21551;DHT22;10936;49.836;7.078;2023-02-25T16:42:15;1.60;99.90
21551;DHT22;10936;49.836;7.078;2023-02-25T16:44:46;1.40;99.90
21551;DHT22;10936;49.836;7.078;2023-02-25T16:47:51;1.30;99.90
21551;DHT22;10936;49.836;7.078;2023-02-25T16:50:21;1.20;99.90
21551;DHT22;10936;49.836;7.078;2023-02-25T16:52:48;1.10;99.90
21551;DHT22;10936;49.836;7.078;2023-02-25T16:55:20;1.10;99.90
21551;DHT22;10936;49.836;7.078;2023-02-25T16:58:14;1.00;99.90
21551;DHT22;10936;49.836;7.078;2023-02-25T17:00:50;0.90;99.90
21551;DHT22;10936;49.836;7.078;2023-02-25T17:03:17;0.80;99.90
21551;DHT22;10936;49.836;7.078;2023-02-25T17:05:43;0.70;99.90
21551;DHT22;10936;49.836;7.078;2023-02-25T17:08:22;0.70;99.90
21551;DHT22;10936;49.836;7.078;2023-02-25T17:10:50;0.90;99.90
21551;DHT22;10936;49.836;7.078;2023-02-25T17:13:27;0.90;99.90
21551;DHT22;10936;49.836;7.078;2023-02-25T17:15:54;1.00;99.90
21551;DHT22;10936;49.836;7.078;2023-02-25T17:21:02;1.20;99.90
21551;DHT22;10936;49.836;7.078;2023-02-25T17:23:29;1.30;99.90
21551;DHT22;10936;49.836;7.078;2023-02-25T17:25:56;1.40;99.90
21551;DHT22;10936;49.836;7.078;2023-02-25T17:28:28;1.50;99.90
21551;DHT22;10936;49.836;7.078;2023-02-25T17:31:25;1.50;99.90
21551;DHT22;10936;49.836;7.078;2023-02-25T17:34:01;1.40;99.90
21551;DHT22;10936;49.836;7.078;2023-02-25T17:36:36;1.50;99.90
21551;DHT22;10936;49.836;7.078;2023-02-25T17:39:06;1.50;99.90
21551;DHT22;10936;49.836;7.078;2023-02-25T17:41:33;1.40;99.90
21551;DHT22;10936;49.836;7.078;2023-02-25T17:43:59;1.30;99.90
21551;DHT22;10936;49.836;7.078;2023-02-25T17:46:36;1.20;99.90
21551;DHT22;10936;49.836;7.078;2023-02-25T17:51:43;1.00;99.90
21551;DHT22;10936;49.836;7.078;2023-02-25T17:54:17;0.80;99.90
21551;DHT22;10936;49.836;7.078;2023-02-25T17:56:43;0.70;99.90
21551;DHT22;10936;49.836;7.078;2023-02-25T18:06:53;0.50;99.90
21551;DHT22;10936;49.836;7.078;2023-02-25T18:09:29;0.40;99.90
21551;DHT22;10936;49.836;7.078;2023-02-25T18:11:57;0.30;99.90
21551;DHT22;10936;49.836;7.078;2023-02-25T18:16:52;0.10;99.90
21551;DHT22;10936;49.836;7.078;2023-02-25T18:19:34;0.00;99.90
21551;DHT22;10936;49.836;7.078;2023-02-25T18:22:01;-0.10;99.90
21551;DHT22;10936;49.836;7.078;2023-02-25T18:24:32;-0.10;99.90
21551;DHT22;10936;49.836;7.078;2023-02-25T18:27:18;-0.10;99.90
21551;DHT22;10936;49.836;7.078;2023-02-25T18:29:44;-0.10;99.90
21551;DHT22;10936;49.836;7.078;2023-02-25T18:32:09;-0.10;99.90
21551;DHT22;10936;49.836;7.078;2023-02-25T18:34:35;-0.10;99.90
21551;DHT22;10936;49.836;7.078;2023-02-25T18:37:00;-0.10;99.90
21551;DHT22;10936;49.836;7.078;2023-02-25T18:39:26;-0.20;99.90
21551;DHT22;10936;49.836;7.078;2023-02-25T18:41:52;-0.30;99.90
21551;DHT22;10936;49.836;7.078;2023-02-25T18:44:17;-0.30;99.90
21551;DHT22;10936;49.836;7.078;2023-02-25T18:46:43;-0.30;99.90
21551;DHT22;10936;49.836;7.078;2023-02-25T18:49:08;-0.30;99.90
21551;DHT22;10936;49.836;7.078;2023-02-25T18:51:34;-0.40;99.90
21551;DHT22;10936;49.836;7.078;2023-02-25T18:54:00;-0.40;99.90
21551;DHT22;10936;49.836;7.078;2023-02-25T18:56:26;-0.40;99.90
21551;DHT22;10936;49.836;7.078;2023-02-25T18:58:52;-0.40;99.90
21551;DHT22;10936;49.836;7.078;2023-02-25T19:01:27;-0.40;99.90
21551;DHT22;10936;49.836;7.078;2023-02-25T19:03:54;-0.50;99.90
21551;DHT22;10936;49.836;7.078;2023-02-25T19:06:27;-0.50;99.90
21551;DHT22;10936;49.836;7.078;2023-02-25T19:08:53;-0.40;99.90
21551;DHT22;10936;49.836;7.078;2023-02-25T19:11:21;-0.50;99.90
21551;DHT22;10936;49.836;7.078;2023-02-25T19:13:47;-0.40;99.90
21551;DHT22;10936;49.836;7.078;2023-02-25T19:16:13;-0.40;99.90
21551;DHT22;10936;49.836;7.078;2023-02-25T19:18:38;-0.40;99.90
21551;DHT22;10936;49.836;7.078;2023-02-25T19:21:12;-0.40;99.90
21551;DHT22;10936;49.836;7.078;2023-02-25T19:23:38;-0.50;99.90
21551;DHT22;10936;49.836;7.078;2023-02-25T19:26:04;-0.40;99.90
21551;DHT22;10936;49.836;7.078;2023-02-25T19:28:30;-0.50;99.90
21551;DHT22;10936;49.836;7.078;2023-02-25T19:30:55;-0.50;99.90
21551;DHT22;10936;49.836;7.078;2023-02-25T19:33:21;-0.60;99.90
21551;DHT22;10936;49.836;7.078;2023-02-25T19:35:46;-0.60;99.90
21551;DHT22;10936;49.836;7.078;2023-02-25T19:38:16;-0.60;99.90
21551;DHT22;10936;49.836;7.078;2023-02-25T19:40:42;-0.50;99.90
21551;DHT22;10936;49.836;7.078;2023-02-25T19:43:09;-0.50;99.90
21551;DHT22;10936;49.836;7.078;2023-02-25T19:45:35;-0.50;99.90
21551;DHT22;10936;49.836;7.078;2023-02-25T19:48:01;-0.50;99.90
21551;DHT22;10936;49.836;7.078;2023-02-25T19:50:27;-0.60;99.90
21551;DHT22;10936;49.836;7.078;2023-02-25T19:52:55;-0.60;99.90
21551;DHT22;10936;49.836;7.078;2023-02-25T19:55:21;-0.60;99.90
21551;DHT22;10936;49.836;7.078;2023-02-25T19:57:48;-0.50;99.90
21551;DHT22;10936;49.836;7.078;2023-02-25T20:02:43;-0.60;99.90
21551;DHT22;10936;49.836;7.078;2023-02-25T20:05:10;-0.50;99.90
21551;DHT22;10936;49.836;7.078;2023-02-25T20:07:36;-0.60;99.90
21551;DHT22;10936;49.836;7.078;2023-02-25T20:10:03;-0.70;99.90
21551;DHT22;10936;49.836;7.078;2023-02-25T20:12:28;-0.70;99.90
21551;DHT22;10936;49.836;7.078;2023-02-25T20:14:54;-0.70;99.90
21551;DHT22;10936;49.836;7.078;2023-02-25T20:17:21;-0.70;99.90
21551;DHT22;10936;49.836;7.078;2023-02-25T20:19:47;-0.80;99.90
21551;DHT22;10936;49.836;7.078;2023-02-25T20:22:13;-0.80;99.90
21551;DHT22;10936;49.836;7.078;2023-02-25T20:24:39;-0.90;99.90
21551;DHT22;10936;49.836;7.078;2023-02-25T20:27:05;-0.80;99.90
21551;DHT22;10936;49.836;7.078;2023-02-25T20:29:30;-0.90;99.90
21551;DHT22;10936;49.836;7.078;2023-02-25T20:31:57;-0.90;99.90
21551;DHT22;10936;49.836;7.078;2023-02-25T20:34:23;-0.90;99.90
21551;DHT22;10936;49.836;7.078;2023-02-25T20:36:58;-0.90;99.90
21551;DHT22;10936;49.836;7.078;2023-02-25T20:42:02;-1.00;99.90
21551;DHT22;10936;49.836;7.078;2023-02-25T20:44:29;-1.00;99.90
21551;DHT22;10936;49.836;7.078;2023-02-25T20:46:56;-1.10;99.90
21551;DHT22;10936;49.836;7.078;2023-02-25T20:49:22;-1.10;99.90
21551;DHT22;10936;49.836;7.078;2023-02-25T20:51:52;-1.10;99.90
21551;DHT22;10936;49.836;7.078;2023-02-25T20:54:19;-1.20;99.90
21551;DHT22;10936;49.836;7.078;2023-02-25T20:56:46;-1.30;99.90
21551;DHT22;10936;49.836;7.078;2023-02-25T20:59:14;-1.30;99.90
21551;DHT22;10936;49.836;7.078;2023-02-25T21:01:41;-1.40;99.90
21551;DHT22;10936;49.836;7.078;2023-02-25T21:04:08;-1.40;99.90
21551;DHT22;10936;49.836;7.078;2023-02-25T21:06:34;-1.40;99.90
21551;DHT22;10936;49.836;7.078;2023-02-25T21:09:00;-1.50;99.90
21551;DHT22;10936;49.836;7.078;2023-02-25T21:11:26;-1.50;99.90
21551;DHT22;10936;49.836;7.078;2023-02-25T21:13:53;-1.60;99.90
21551;DHT22;10936;49.836;7.078;2023-02-25T21:16:20;-1.70;99.90
21551;DHT22;10936;49.836;7.078;2023-02-25T21:18:47;-1.70;99.90
21551;DHT22;10936;49.836;7.078;2023-02-25T21:21:16;-1.70;99.90
21551;DHT22;10936;49.836;7.078;2023-02-25T21:23:42;-1.70;99.90
21551;DHT22;10936;49.836;7.078;2023-02-25T21:26:09;-1.70;99.90
21551;DHT22;10936;49.836;7.078;2023-02-25T21:28:36;-1.70;99.90
21551;DHT22;10936;49.836;7.078;2023-02-25T21:31:07;-1.70;99.90
21551;DHT22;10936;49.836;7.078;2023-02-25T21:33:34;-1.70;99.90
21551;DHT22;10936;49.836;7.078;2023-02-25T21:36:01;-1.80;99.90
21551;DHT22;10936;49.836;7.078;2023-02-25T21:38:27;-1.80;99.90
21551;DHT22;10936;49.836;7.078;2023-02-25T21:40:53;-1.80;99.90
21551;DHT22;10936;49.836;7.078;2023-02-25T21:43:20;-1.90;99.90
21551;DHT22;10936;49.836;7.078;2023-02-25T21:46:00;-1.90;99.90
21551;DHT22;10936;49.836;7.078;2023-02-25T21:48:27;-2.00;99.90
21551;DHT22;10936;49.836;7.078;2023-02-25T21:50:53;-2.10;99.90
21551;DHT22;10936;49.836;7.078;2023-02-25T21:53:19;-2.10;99.90
21551;DHT22;10936;49.836;7.078;2023-02-25T21:55:46;-2.10;99.90
21551;DHT22;10936;49.836;7.078;2023-02-25T21:58:13;-2.00;99.90
21551;DHT22;10936;49.836;7.078;2023-02-25T22:00:40;-2.00;99.90
21551;DHT22;10936;49.836;7.078;2023-02-25T22:03:05;-2.00;99.90
21551;DHT22;10936;49.836;7.078;2023-02-25T22:05:34;-2.00;99.90
21551;DHT22;10936;49.836;7.078;2023-02-25T22:07:59;-1.90;99.90
21551;DHT22;10936;49.836;7.078;2023-02-25T22:10:25;-2.00;99.90
21551;DHT22;10936;49.836;7.078;2023-02-25T22:12:51;-2.00;99.90
21551;DHT22;10936;49.836;7.078;2023-02-25T22:15:18;-1.90;99.90
21551;DHT22;10936;49.836;7.078;2023-02-25T22:17:43;-2.00;99.90
21551;DHT22;10936;49.836;7.078;2023-02-25T22:20:09;-2.00;99.90
21551;DHT22;10936;49.836;7.078;2023-02-25T22:22:36;-1.90;99.90
21551;DHT22;10936;49.836;7.078;2023-02-25T22:25:02;-1.90;99.90
21551;DHT22;10936;49.836;7.078;2023-02-25T22:27:29;-1.90;99.90
21551;DHT22;10936;49.836;7.078;2023-02-25T22:29:55;-1.90;99.90
21551;DHT22;10936;49.836;7.078;2023-02-25T22:32:21;-1.80;99.90
21551;DHT22;10936;49.836;7.078;2023-02-25T22:34:46;-1.80;99.90
21551;DHT22;10936;49.836;7.078;2023-02-25T22:37:12;-1.90;99.90
21551;DHT22;10936;49.836;7.078;2023-02-25T22:39:37;-1.80;99.90
21551;DHT22;10936;49.836;7.078;2023-02-25T22:42:03;-1.80;99.90
21551;DHT22;10936;49.836;7.078;2023-02-25T22:44:28;-1.80;99.90
21551;DHT22;10936;49.836;7.078;2023-02-25T22:46:54;-1.80;99.90
21551;DHT22;10936;49.836;7.078;2023-02-25T22:49:20;-1.80;99.90
21551;DHT22;10936;49.836;7.078;2023-02-25T22:51:45;-1.90;99.90
21551;DHT22;10936;49.836;7.078;2023-02-25T22:54:15;-1.90;99.90
21551;DHT22;10936;49.836;7.078;2023-02-25T22:56:41;-1.90;99.90
21551;DHT22;10936;49.836;7.078;2023-02-25T22:59:08;-1.90;99.90
21551;DHT22;10936;49.836;7.078;2023-02-25T23:01:34;-2.00;99.90
21551;DHT22;10936;49.836;7.078;2023-02-25T23:03:59;-2.00;99.90
21551;DHT22;10936;49.836;7.078;2023-02-25T23:06:31;-2.00;99.90
21551;DHT22;10936;49.836;7.078;2023-02-25T23:08:57;-2.00;99.90
21551;DHT22;10936;49.836;7.078;2023-02-25T23:11:29;-2.10;99.90
21551;DHT22;10936;49.836;7.078;2023-02-25T23:13:57;-2.10;99.90
21551;DHT22;10936;49.836;7.078;2023-02-25T23:16:27;-2.20;99.90
21551;DHT22;10936;49.836;7.078;2023-02-25T23:18:55;-2.20;99.90
21551;DHT22;10936;49.836;7.078;2023-02-25T23:21:21;-2.20;99.90
21551;DHT22;10936;49.836;7.078;2023-02-25T23:23:52;-2.40;99.90
21551;DHT22;10936;49.836;7.078;2023-02-25T23:26:20;-2.40;99.90
21551;DHT22;10936;49.836;7.078;2023-02-25T23:28:47;-2.40;99.90
21551;DHT22;10936;49.836;7.078;2023-02-25T23:31:20;-2.40;99.90
21551;DHT22;10936;49.836;7.078;2023-02-25T23:33:47;-2.50;99.90
21551;DHT22;10936;49.836;7.078;2023-02-25T23:36:13;-2.50;99.90
21551;DHT22;10936;49.836;7.078;2023-02-25T23:38:38;-2.50;99.90
21551;DHT22;10936;49.836;7.078;2023-02-25T23:41:04;-2.60;99.90
21551;DHT22;10936;49.836;7.078;2023-02-25T23:43:30;-2.70;99.90
21551;DHT22;10936;49.836;7.078;2023-02-25T23:45:55;-2.70;99.90
21551;DHT22;10936;49.836;7.078;2023-02-25T23:48:21;-2.70;99.90
21551;DHT22;10936;49.836;7.078;2023-02-25T23:50:47;-2.70;99.90
21551;DHT22;10936;49.836;7.078;2023-02-25T23:53:12;-2.80;99.90
21551;DHT22;10936;49.836;7.078;2023-02-25T23:55:38;-2.80;99.90
21551;DHT22;10936;49.836;7.078;2023-02-25T23:58:04;-2.70;99.90
